Time;durP1;ratioP1;P1;durP2;ratioP2;P2;SDS_P1;SDS_P2;PMS_P1;PMS_P2;Temp;Humidity;BMP_temperature;BMP_pressure;BME280_temperature;BME280_humidity;BME280_pressure;Samples;Min_cycle;Max_cycle;Signal;HPM_P1;HPM_P2
2023/03/04 00:02:00;;;;;;;22.98;9.82;;;;;;;6.26;66.88;102512.66;5031065;28;20025;-57
2023/03/04 00:04:25;;;;;;;23.10;9.98;;;;;;;6.18;67.01;102518.97;5031314;28;20326;-56
2023/03/04 00:06:51;;;;;;;23.15;9.50;;;;;;;6.21;66.98;102522.44;5030798;28;20083;-57
2023/03/04 00:09:16;;;;;;;27.48;9.88;;;;;;;6.17;66.92;102520.75;5031340;28;20057;-57
2023/03/04 00:11:41;;;;;;;19.80;9.60;;;;;;;6.13;67.22;102509.38;5030892;28;20021;-57
2023/03/04 00:14:07;;;;;;;26.58;9.63;;;;;;;6.20;66.71;102515.41;5029102;28;20057;-57
2023/03/04 00:16:32;;;;;;;21.85;9.32;;;;;;;6.02;67.56;102523.66;5027232;28;20087;-57
2023/03/04 00:18:58;;;;;;;21.70;9.38;;;;;;;6.04;67.52;102512.16;5037427;28;20084;-57
2023/03/04 00:21:23;;;;;;;20.58;9.18;;;;;;;5.98;67.43;102512.28;5026881;28;20124;-56
2023/03/04 00:23:49;;;;;;;23.17;8.77;;;;;;;6.00;68.04;102510.50;5026525;28;20041;-57
2023/03/04 00:26:15;;;;;;;30.00;9.90;;;;;;;6.01;68.42;102503.44;5028865;28;20104;-57
2023/03/04 00:28:41;;;;;;;22.42;9.48;;;;;;;6.05;67.97;102505.97;5029654;28;20129;-56
2023/03/04 00:31:07;;;;;;;23.15;10.07;;;;;;;5.80;68.60;102500.22;5030665;28;20021;-57
2023/03/04 00:33:33;;;;;;;27.77;9.68;;;;;;;5.86;69.00;102507.19;5030504;28;20476;-57
2023/03/04 00:35:59;;;;;;;23.08;9.38;;;;;;;5.86;68.59;102500.13;5046129;28;20026;-57
2023/03/04 00:38:24;;;;;;;29.25;10.30;;;;;;;5.84;68.68;102506.31;5030179;28;20030;-56
2023/03/04 00:40:52;;;;;;;19.13;8.95;;;;;;;5.83;68.55;102501.94;5033700;28;20572;-56
2023/03/04 00:43:17;;;;;;;24.27;9.68;;;;;;;5.66;68.94;102496.94;5032739;28;20057;-57
2023/03/04 00:45:43;;;;;;;26.67;8.98;;;;;;;5.72;69.70;102498.59;5031242;28;20060;-57
2023/03/04 00:48:08;;;;;;;27.15;9.27;;;;;;;5.69;69.92;102500.38;5031731;28;20068;-56
2023/03/04 00:50:34;;;;;;;25.67;9.00;;;;;;;5.66;70.26;102503.09;5034299;28;20033;-57
2023/03/04 00:53:00;;;;;;;19.45;8.75;;;;;;;5.73;69.89;102501.22;5031610;28;20074;-55
2023/03/04 00:55:26;;;;;;;23.20;9.45;;;;;;;5.83;69.96;102504.59;5033109;28;20027;-57
2023/03/04 00:57:53;;;;;;;21.45;9.40;;;;;;;5.80;70.29;102500.22;5034178;28;20088;-56
2023/03/04 01:00:19;;;;;;;22.40;9.13;;;;;;;5.86;70.16;102502.75;5032871;28;20025;-57
2023/03/04 01:02:44;;;;;;;17.52;8.48;;;;;;;5.90;69.74;102501.81;5033981;28;20021;-56
2023/03/04 01:05:10;;;;;;;23.15;9.23;;;;;;;5.85;70.00;102516.88;5033996;28;20036;-56
2023/03/04 01:07:38;;;;;;;24.85;10.10;;;;;;;5.95;69.51;102508.81;5034344;28;20018;-56
2023/03/04 01:10:06;;;;;;;28.42;10.23;;;;;;;5.91;70.25;102511.50;5033633;28;20370;-57
2023/03/04 01:12:31;;;;;;;25.85;10.32;;;;;;;5.94;69.97;102507.94;5032654;28;20463;-57
2023/03/04 01:14:57;;;;;;;24.80;9.82;;;;;;;5.78;69.66;102509.94;5033960;28;20053;-56
2023/03/04 01:17:23;;;;;;;27.50;9.30;;;;;;;5.87;70.48;102514.19;5033949;28;20033;-56
2023/03/04 01:19:48;;;;;;;23.17;9.50;;;;;;;5.74;70.51;102502.09;5033836;28;20029;-57
2023/03/04 01:22:15;;;;;;;28.60;9.38;;;;;;;5.85;69.94;102514.22;5030647;28;20465;-56
2023/03/04 01:24:44;;;;;;;21.30;9.48;;;;;;;5.60;70.74;102513.75;5029575;28;20501;-56
2023/03/04 01:27:12;;;;;;;22.08;9.98;;;;;;;5.59;70.31;102505.81;5032487;28;20025;-57
2023/03/04 01:29:37;;;;;;;29.83;9.75;;;;;;;5.55;71.12;102506.78;5030556;28;20033;-57
2023/03/04 01:32:03;;;;;;;23.90;8.77;;;;;;;5.57;71.24;102507.63;5032110;28;20021;-57
2023/03/04 01:34:28;;;;;;;20.80;8.85;;;;;;;5.54;71.32;102503.28;5029461;28;20082;-57
2023/03/04 01:36:54;;;;;;;24.60;9.40;;;;;;;5.64;71.32;102504.88;5033151;28;20116;-57
2023/03/04 01:39:21;;;;;;;26.73;10.18;;;;;;;5.61;70.79;102504.03;5032001;28;20159;-56
2023/03/04 01:41:50;;;;;;;19.55;8.88;;;;;;;5.54;70.93;102487.44;5032944;28;20550;-56
2023/03/04 01:44:17;;;;;;;23.25;9.07;;;;;;;5.65;71.29;102497.84;5029934;28;20026;-57
2023/03/04 01:46:47;;;;;;;24.75;9.73;;;;;;;5.53;71.49;102498.91;5031606;28;20028;-56
2023/03/04 01:49:14;;;;;;;25.77;9.32;;;;;;;5.57;71.48;102483.88;5018095;28;20017;-57
2023/03/04 01:51:42;;;;;;;25.48;8.88;;;;;;;5.72;70.84;102496.84;5029796;28;20029;-56
2023/03/04 01:54:08;;;;;;;25.75;9.13;;;;;;;5.63;71.52;102478.50;5029993;28;20487;-57
2023/03/04 01:56:36;;;;;;;23.65;8.65;;;;;;;5.68;71.43;102481.97;5032505;28;20060;-57
2023/03/04 01:59:16;;;;;;;25.65;8.80;;;;;;;5.68;70.88;102477.53;5034271;28;20494;-57
2023/03/04 02:01:53;;;;;;;23.52;8.45;;;;;;;5.59;71.06;102471.50;5033908;28;20029;-57
2023/03/04 02:04:22;;;;;;;24.05;8.95;;;;;;;5.49;71.15;102470.81;5044374;28;20026;-57
2023/03/04 02:06:48;;;;;;;22.02;9.00;;;;;;;5.44;72.18;102470.00;5042061;28;20047;-57
2023/03/04 02:09:15;;;;;;;20.95;7.65;;;;;;;5.35;72.59;102462.22;5051867;28;20396;-56
2023/03/04 02:11:41;;;;;;;19.63;8.70;;;;;;;5.43;72.25;102466.50;5047574;28;20037;-57
2023/03/04 02:14:10;;;;;;;23.85;9.27;;;;;;;5.40;72.53;102458.63;5049873;28;20039;-56
2023/03/04 02:16:36;;;;;;;27.40;9.05;;;;;;;5.36;72.34;102464.84;5040084;28;20191;-56
2023/03/04 02:19:06;;;;;;;19.48;8.20;;;;;;;5.37;72.81;102455.16;5051839;28;20096;-57
2023/03/04 02:21:33;;;;;;;16.25;8.60;;;;;;;5.41;72.08;102463.03;5034325;28;20025;-56
2023/03/04 02:24:14;;;;;;;23.38;8.68;;;;;;;5.45;72.58;102464.72;5042981;28;20389;-56
2023/03/04 02:26:42;;;;;;;25.40;9.23;;;;;;;5.39;71.92;102456.88;5031097;28;20087;-56
2023/03/04 02:29:09;;;;;;;22.13;8.20;;;;;;;5.50;72.40;102455.84;5043639;28;20380;-56
2023/03/04 02:31:43;;;;;;;21.85;9.15;;;;;;;5.50;71.78;102458.47;5032796;28;20029;-56
2023/03/04 02:34:15;;;;;;;22.63;8.90;;;;;;;5.42;72.39;102455.97;5037053;28;20407;-56
2023/03/04 02:36:42;;;;;;;21.30;9.27;;;;;;;5.43;72.66;102457.72;5037648;28;20028;-56
2023/03/04 02:39:19;;;;;;;29.90;8.48;;;;;;;5.33;73.13;102453.47;5051277;28;20025;-57
2023/03/04 02:41:49;;;;;;;30.98;8.65;;;;;;;5.27;73.18;102450.94;5033265;28;20499;-56
2023/03/04 02:44:17;;;;;;;22.67;9.05;;;;;;;5.30;72.24;102456.16;5041757;28;20021;-56
2023/03/04 02:46:43;;;;;;;22.70;8.35;;;;;;;5.38;72.53;102448.97;5036101;28;20036;-56
2023/03/04 02:49:08;;;;;;;21.23;8.98;;;;;;;5.38;73.22;102443.72;5042845;28;20024;-57
2023/03/04 02:51:36;;;;;;;23.02;8.95;;;;;;;5.36;72.70;102437.59;5047299;28;20400;-56
2023/03/04 02:54:02;;;;;;;25.83;8.68;;;;;;;5.40;73.56;102440.16;5040900;28;20532;-57
2023/03/04 02:56:27;;;;;;;21.90;8.38;;;;;;;5.53;72.97;102435.56;5050844;28;20124;-56
2023/03/04 02:58:53;;;;;;;30.20;9.98;;;;;;;5.35;73.28;102439.34;5044838;28;20063;-56
2023/03/04 03:01:18;;;;;;;20.30;7.72;;;;;;;5.30;72.86;102430.66;5031548;28;20033;-56
2023/03/04 03:03:46;;;;;;;22.13;8.40;;;;;;;5.32;73.20;102442.03;5038337;28;20029;-57
2023/03/04 03:06:11;;;;;;;15.75;8.20;;;;;;;5.27;74.02;102438.63;5050646;28;20484;-57
2023/03/04 03:08:37;;;;;;;25.45;9.32;;;;;;;5.29;73.77;102426.25;5050350;28;20036;-60
2023/03/04 03:11:02;;;;;;;17.83;7.97;;;;;;;5.29;73.14;102426.25;5048640;28;20048;-57
2023/03/04 03:13:28;;;;;;;25.23;8.75;;;;;;;5.22;73.95;102437.81;5041181;28;20028;-57
2023/03/04 03:15:56;;;;;;;23.95;8.63;;;;;;;5.25;73.32;102437.75;5028466;28;20021;-56
2023/03/04 03:18:21;;;;;;;19.40;8.27;;;;;;;5.26;72.85;102428.06;5048142;28;20026;-56
2023/03/04 03:20:49;;;;;;;17.67;8.60;;;;;;;5.22;73.47;102429.91;5050321;28;20024;-56
2023/03/04 03:23:16;;;;;;;23.83;8.20;;;;;;;5.22;73.78;102428.13;5049311;28;20112;-56
2023/03/04 03:25:42;;;;;;;22.00;8.18;;;;;;;5.34;73.37;102427.06;5044207;28;20031;-57
2023/03/04 03:28:07;;;;;;;15.07;7.55;;;;;;;5.31;73.51;102426.25;5048360;28;20021;-57
2023/03/04 03:30:33;;;;;;;15.85;8.30;;;;;;;5.38;73.55;102425.25;5037955;28;20117;-57
2023/03/04 03:32:58;;;;;;;21.60;8.75;;;;;;;5.35;73.66;102420.00;5042594;28;20087;-57
2023/03/04 03:35:24;;;;;;;18.92;8.00;;;;;;;5.34;73.81;102413.88;5030176;28;20465;-56
2023/03/04 03:37:49;;;;;;;18.50;8.52;;;;;;;5.35;74.07;102420.88;5031121;28;20389;-57
2023/03/04 03:40:14;;;;;;;20.95;8.82;;;;;;;5.43;74.08;102415.50;5030320;28;20041;-56
2023/03/04 03:42:42;;;;;;;19.05;8.50;;;;;;;5.41;73.85;102419.91;5029873;28;20029;-56
2023/03/04 03:45:08;;;;;;;17.92;7.95;;;;;;;5.52;73.41;102412.69;5027775;28;20018;-57
2023/03/04 03:47:33;;;;;;;22.52;8.68;;;;;;;5.35;73.97;102409.47;5027119;28;20025;-56
2023/03/04 03:49:59;;;;;;;22.67;8.88;;;;;;;5.38;73.87;102414.69;5029038;28;20075;-57
2023/03/04 03:52:24;;;;;;;17.35;8.88;;;;;;;5.35;74.15;102412.97;5029812;28;20021;-57
2023/03/04 03:54:52;;;;;;;19.15;8.18;;;;;;;5.27;73.93;102412.25;5030452;28;20078;-56
2023/03/04 03:57:20;;;;;;;20.17;7.95;;;;;;;5.28;74.68;102421.03;5031175;28;20033;-56
2023/03/04 03:59:46;;;;;;;15.52;7.85;;;;;;;5.24;74.69;102421.06;5030975;28;20075;-56
2023/03/04 04:02:11;;;;;;;21.88;8.38;;;;;;;5.28;74.51;102415.75;5025263;28;20468;-57
2023/03/04 04:04:36;;;;;;;20.52;8.32;;;;;;;5.34;74.78;102421.78;5027126;28;20453;-57
2023/03/04 04:07:02;;;;;;;19.23;8.57;;;;;;;5.30;74.46;102412.19;5030058;28;20040;-57
2023/03/04 04:09:27;;;;;;;22.80;8.93;;;;;;;5.35;74.36;102412.97;5030590;28;20030;-57
2023/03/04 04:11:53;;;;;;;22.20;8.88;;;;;;;5.20;74.75;102403.53;5028279;28;20032;-56
2023/03/04 04:14:18;;;;;;;22.13;8.07;;;;;;;5.25;73.42;102421.94;5030347;28;20025;-57
2023/03/04 04:16:43;;;;;;;17.23;8.48;;;;;;;5.16;73.56;102417.66;5035005;28;20080;-56
2023/03/04 04:19:16;;;;;;;18.90;7.50;;;;;;;5.26;73.36;102414.88;5030057;28;20021;-57
2023/03/04 04:21:41;;;;;;;16.55;7.90;;;;;;;5.23;73.43;102411.44;5034195;28;20399;-56
2023/03/04 04:24:07;;;;;;;21.55;8.07;;;;;;;5.21;73.44;102414.97;5034875;28;20021;-56
2023/03/04 04:26:32;;;;;;;19.77;8.48;;;;;;;5.26;73.54;102422.78;5034355;28;20017;-57
2023/03/04 04:28:57;;;;;;;17.33;8.00;;;;;;;5.15;73.06;102421.22;5033673;28;20032;-57
2023/03/04 04:31:23;;;;;;;14.77;7.57;;;;;;;5.28;73.45;102415.75;5032472;28;20029;-57
2023/03/04 04:33:48;;;;;;;20.30;8.15;;;;;;;5.17;73.72;102419.41;5032569;28;20033;-56
2023/03/04 04:36:15;;;;;;;18.13;8.07;;;;;;;5.09;73.28;102413.41;5043078;28;20029;-56
2023/03/04 04:38:41;;;;;;;19.60;8.23;;;;;;;5.07;73.36;102411.66;5033506;28;20032;-57
2023/03/04 04:41:20;;;;;;;18.95;8.15;;;;;;;5.20;73.15;102427.25;5033079;28;20060;-56
2023/03/04 04:43:46;;;;;;;18.52;8.65;;;;;;;5.19;73.47;102414.97;5032464;28;20043;-57
2023/03/04 04:46:11;;;;;;;23.55;8.05;;;;;;;5.35;72.68;102427.94;5034320;28;20021;-57
2023/03/04 04:48:39;;;;;;;22.48;8.25;;;;;;;5.26;73.61;102417.53;5034241;28;20469;-57
2023/03/04 04:51:07;;;;;;;20.77;8.60;;;;;;;5.31;72.93;102426.25;5033168;28;20032;-57
2023/03/04 04:53:33;;;;;;;15.13;7.93;;;;;;;5.25;73.41;102424.56;5033053;28;20022;-57
2023/03/04 04:55:58;;;;;;;16.67;8.05;;;;;;;5.05;72.71;102401.13;5033578;28;20025;-57
2023/03/04 04:58:24;;;;;;;19.58;8.20;;;;;;;5.18;72.82;102423.81;5033360;28;20388;-57
2023/03/04 05:00:49;;;;;;;20.33;7.68;;;;;;;5.16;73.44;102420.31;5032074;28;20036;-58
2023/03/04 05:03:15;;;;;;;17.48;7.25;;;;;;;5.32;72.38;102427.97;5028034;28;20447;-58
2023/03/04 05:05:41;;;;;;;24.13;8.07;;;;;;;5.28;73.23;102428.94;5033855;28;20068;-57
2023/03/04 05:08:06;;;;;;;17.83;7.70;;;;;;;5.23;73.09;102424.63;5033973;28;20030;-57
2023/03/04 05:10:32;;;;;;;20.98;7.75;;;;;;;5.21;72.46;102421.13;5033433;28;20100;-57
2023/03/04 05:12:57;;;;;;;20.35;7.68;;;;;;;5.21;72.93;102423.75;5034164;28;20026;-57
2023/03/04 05:15:22;;;;;;;22.60;7.82;;;;;;;5.24;72.83;102428.13;5032583;28;20033;-58
2023/03/04 05:17:48;;;;;;;18.75;8.05;;;;;;;5.33;72.46;102427.09;5032988;28;20033;-58
2023/03/04 05:20:13;;;;;;;18.02;7.80;;;;;;;5.27;72.70;102421.94;5034846;28;20468;-58
2023/03/04 05:22:39;;;;;;;18.45;7.57;;;;;;;5.16;72.62;102407.13;5032561;28;20068;-58
2023/03/04 05:25:06;;;;;;;14.80;7.57;;;;;;;5.20;72.15;102418.50;5032144;28;20112;-58
2023/03/04 05:27:31;;;;;;;19.65;6.75;;;;;;;5.30;73.08;102417.47;5029804;28;20075;-57
2023/03/04 05:29:59;;;;;;;21.48;8.40;;;;;;;5.30;72.65;102424.50;5033411;28;20033;-58
2023/03/04 05:32:24;;;;;;;16.40;7.97;;;;;;;5.28;72.58;102426.28;5034099;28;20036;-57
2023/03/04 05:34:50;;;;;;;16.33;7.80;;;;;;;5.25;73.20;102427.22;5033402;28;20433;-58
2023/03/04 05:37:18;;;;;;;19.65;7.57;;;;;;;5.22;72.90;102414.06;5033844;28;20030;-57
2023/03/04 05:39:44;;;;;;;21.58;9.05;;;;;;;5.24;72.46;102422.84;5034165;28;22040;-57
2023/03/04 05:42:09;;;;;;;15.50;6.90;;;;;;;5.22;72.59;102419.34;5050846;28;20181;-57
2023/03/04 05:44:34;;;;;;;17.95;7.70;;;;;;;5.24;72.64;102434.25;5050301;28;20033;-58
2023/03/04 05:47:00;;;;;;;23.25;8.68;;;;;;;5.23;72.90;102429.88;5051386;28;20036;-56
2023/03/04 05:49:25;;;;;;;14.73;7.78;;;;;;;5.21;72.43;102422.88;5046959;28;20419;-57
2023/03/04 05:51:52;;;;;;;14.38;7.55;;;;;;;5.17;72.21;102435.22;5032477;28;20035;-57
2023/03/04 05:54:17;;;;;;;20.45;8.43;;;;;;;5.07;73.55;102425.72;5032377;28;20025;-57
2023/03/04 05:56:42;;;;;;;18.38;8.07;;;;;;;5.13;73.96;102436.19;5031184;28;20552;-56
2023/03/04 05:59:08;;;;;;;15.82;6.97;;;;;;;5.16;72.82;102435.28;5022815;28;20428;-56
2023/03/04 06:01:33;;;;;;;15.52;8.05;;;;;;;5.19;72.75;102429.94;5032545;28;20029;-57
2023/03/04 06:04:01;;;;;;;14.73;7.82;;;;;;;5.18;73.06;102438.75;5048621;28;20033;-56
2023/03/04 06:06:27;;;;;;;22.58;7.75;;;;;;;5.17;73.17;102437.00;5036276;28;20032;-57
2023/03/04 06:08:52;;;;;;;15.27;7.82;;;;;;;5.13;73.41;102435.31;5033800;28;20022;-57
2023/03/04 06:11:17;;;;;;;16.95;7.78;;;;;;;5.06;74.06;102437.19;5031337;28;20775;-56
2023/03/04 06:13:43;;;;;;;16.30;7.95;;;;;;;5.07;74.08;102444.19;5032819;28;20029;-57
2023/03/04 06:16:08;;;;;;;19.02;8.48;;;;;;;5.14;74.13;102440.56;5032328;28;20112;-56
2023/03/04 06:18:34;;;;;;;16.58;7.22;;;;;;;5.07;75.19;102440.69;5032880;28;20030;-57
2023/03/04 06:21:01;;;;;;;17.98;8.68;;;;;;;5.07;75.53;102440.69;5032580;28;20047;-57
2023/03/04 06:23:28;;;;;;;17.85;7.75;;;;;;;5.13;75.19;102438.81;5032799;28;20025;-57
2023/03/04 06:25:55;;;;;;;14.23;7.75;;;;;;;5.10;75.81;102446.78;5032323;28;20571;-57
2023/03/04 06:28:22;;;;;;;12.77;6.55;;;;;;;5.08;75.99;102445.03;5032902;28;20022;-57
2023/03/04 06:30:47;;;;;;;18.45;7.72;;;;;;;5.09;76.32;102452.06;5015018;28;20029;-56
2023/03/04 06:33:12;;;;;;;15.88;7.30;;;;;;;5.11;76.34;102447.63;5032735;28;20025;-56
2023/03/04 06:35:38;;;;;;;18.13;7.88;;;;;;;5.14;75.78;102453.72;5032023;28;20041;-56
2023/03/04 06:38:03;;;;;;;13.95;7.78;;;;;;;5.05;77.16;102453.88;5032188;28;20140;-56
2023/03/04 06:40:28;;;;;;;16.25;7.78;;;;;;;5.01;77.70;102447.78;5030604;28;20068;-56
2023/03/04 06:42:54;;;;;;;13.85;7.55;;;;;;;5.02;77.89;102438.09;5031294;28;20075;-56
2023/03/04 06:45:22;;;;;;;12.32;7.50;;;;;;;4.94;78.14;102446.13;5031222;28;20087;-57
2023/03/04 06:47:47;;;;;;;15.13;8.18;;;;;;;4.94;79.28;102451.41;5030731;28;20491;-56
2023/03/04 06:50:13;;;;;;;15.80;7.57;;;;;;;4.94;79.65;102454.03;5030862;28;20033;-57
2023/03/04 06:52:39;;;;;;;13.85;7.80;;;;;;;4.95;79.28;102449.63;5032060;28;20048;-56
2023/03/04 06:55:05;;;;;;;14.27;7.75;;;;;;;5.00;79.73;102456.59;5031871;28;20461;-56
2023/03/04 06:57:30;;;;;;;12.88;7.70;;;;;;;5.05;79.10;102456.50;5032054;28;20404;-56
2023/03/04 06:59:56;;;;;;;16.48;7.72;;;;;;;5.11;79.29;102468.75;5030844;28;20025;-56
2023/03/04 07:02:21;;;;;;;19.33;7.47;;;;;;;5.01;79.21;102460.09;5030691;28;20021;-57
2023/03/04 07:04:49;;;;;;;16.75;7.82;;;;;;;5.04;79.28;102460.06;5031878;28;20087;-56
2023/03/04 07:07:17;;;;;;;13.52;7.53;;;;;;;5.15;79.01;102471.31;5031482;28;20025;-56
2023/03/04 07:09:42;;;;;;;14.18;7.95;;;;;;;5.14;79.31;102463.41;5030176;28;20610;-56
2023/03/04 07:12:08;;;;;;;17.65;9.30;;;;;;;5.14;79.20;102472.19;5030812;28;20053;-56
2023/03/04 07:14:33;;;;;;;15.02;7.30;;;;;;;5.15;78.90;102463.41;5030299;28;20047;-56
2023/03/04 07:16:58;;;;;;;19.10;7.75;;;;;;;5.13;79.44;102470.47;5031428;28;20104;-56
2023/03/04 07:19:24;;;;;;;12.25;7.90;;;;;;;5.08;79.90;102469.66;5032052;28;20029;-57
2023/03/04 07:21:49;;;;;;;18.98;7.55;;;;;;;5.20;79.50;102471.25;5031619;28;20025;-56
2023/03/04 07:24:17;;;;;;;16.45;7.80;;;;;;;5.22;79.88;102472.09;5030452;28;20421;-57
2023/03/04 07:26:43;;;;;;;12.27;7.18;;;;;;;5.21;79.38;102473.00;5031061;28;20021;-57
2023/03/04 07:29:11;;;;;;;16.23;7.80;;;;;;;5.21;79.92;102479.16;5031886;28;20480;-56
2023/03/04 07:31:36;;;;;;;17.30;7.70;;;;;;;5.30;79.23;102466.72;5031868;28;20112;-56
2023/03/04 07:34:10;;;;;;;12.20;7.45;;;;;;;5.35;78.80;102484.19;5031542;28;20096;-57
2023/03/04 07:36:36;;;;;;;15.35;7.45;;;;;;;5.36;79.67;102488.59;5031451;28;20478;-56
2023/03/04 07:39:05;;;;;;;15.75;8.15;;;;;;;5.33;79.09;102491.28;5029907;28;20029;-57
2023/03/04 07:41:35;;;;;;;16.48;6.78;;;;;;;5.43;80.01;102494.66;5029844;28;20053;-57
2023/03/04 07:44:01;;;;;;;12.85;8.43;;;;;;;5.40;79.35;102492.91;5031408;28;20431;-57
2023/03/04 07:46:26;;;;;;;16.40;8.10;;;;;;;5.38;80.11;102489.47;5030083;28;20410;-56
2023/03/04 07:48:54;;;;;;;19.77;8.70;;;;;;;5.41;79.65;102499.97;5030873;28;20038;-57
2023/03/04 07:51:21;;;;;;;19.83;8.50;;;;;;;5.46;80.41;102497.25;5030251;28;20087;-56
2023/03/04 07:53:50;;;;;;;16.80;8.07;;;;;;;5.44;80.10;102499.91;5031476;28;20057;-57
2023/03/04 07:56:18;;;;;;;17.13;8.02;;;;;;;5.45;79.98;102506.94;5030741;28;20021;-56
2023/03/04 07:58:44;;;;;;;18.38;8.38;;;;;;;5.40;79.85;102506.13;5030353;28;20064;-56
2023/03/04 08:01:19;;;;;;;16.05;7.63;;;;;;;5.31;80.54;102498.34;5031267;28;20056;-57
2023/03/04 08:03:45;;;;;;;17.73;8.63;;;;;;;5.36;80.25;102509.69;5030674;28;20022;-57
2023/03/04 08:06:13;;;;;;;12.95;7.82;;;;;;;5.34;80.51;102511.47;5029377;28;20021;-57
2023/03/04 08:08:39;;;;;;;15.90;7.65;;;;;;;5.50;80.90;102511.25;5031198;28;20035;-56
2023/03/04 08:11:06;;;;;;;12.30;7.72;;;;;;;5.42;80.34;102498.19;5030477;28;20026;-57
2023/03/04 08:13:31;;;;;;;11.90;8.32;;;;;;;5.39;80.47;102499.09;5031233;28;20075;-57
2023/03/04 08:15:59;;;;;;;15.65;8.82;;;;;;;5.43;81.28;102507.84;5030528;28;20025;-56
2023/03/04 08:18:25;;;;;;;14.35;8.13;;;;;;;5.46;80.84;102503.38;5031204;28;20101;-56
2023/03/04 08:20:52;;;;;;;15.70;8.60;;;;;;;5.43;80.63;102495.50;5030615;28;20076;-56
2023/03/04 08:23:18;;;;;;;15.32;7.85;;;;;;;5.44;81.18;102501.66;5031120;28;20415;-56
2023/03/04 08:25:44;;;;;;;15.15;9.00;;;;;;;5.43;81.58;102506.06;5030107;28;20546;-56
2023/03/04 08:28:12;;;;;;;15.52;9.52;;;;;;;5.51;81.63;102507.75;5029986;28;20021;-56
2023/03/04 08:30:38;;;;;;;12.05;8.32;;;;;;;5.43;82.16;102506.06;5030695;28;20025;-57
2023/03/04 08:33:03;;;;;;;17.27;8.40;;;;;;;5.47;82.14;102510.41;5030649;28;20033;-56
2023/03/04 08:35:31;;;;;;;12.75;8.00;;;;;;;5.38;83.08;102512.31;5029453;28;20469;-57
2023/03/04 08:37:57;;;;;;;16.92;8.90;;;;;;;5.51;83.28;102510.38;5031297;28;20022;-56
2023/03/04 08:40:25;;;;;;;18.08;8.45;;;;;;;5.48;83.10;102503.38;5030589;28;20499;-57
2023/03/04 08:42:50;;;;;;;19.40;8.80;;;;;;;5.52;83.30;102498.91;5029094;28;20033;-56
2023/03/04 08:45:15;;;;;;;17.38;8.77;;;;;;;5.63;83.13;102510.19;5031056;28;20020;-57
2023/03/04 08:47:41;;;;;;;14.20;8.27;;;;;;;5.80;82.48;102505.50;5030625;28;20079;-56
2023/03/04 08:50:07;;;;;;;21.23;9.00;;;;;;;5.75;82.43;102507.34;5030976;28;20021;-57
2023/03/04 08:52:32;;;;;;;13.57;8.82;;;;;;;5.87;82.88;102509.78;5029228;28;20036;-57
2023/03/04 08:54:58;;;;;;;14.88;8.35;;;;;;;5.91;81.91;102495.66;5030079;28;20022;-57
2023/03/04 08:57:23;;;;;;;15.30;8.27;;;;;;;6.23;80.72;102511.84;5029718;28;20481;-57
2023/03/04 08:59:49;;;;;;;14.50;7.95;;;;;;;6.40;80.79;102507.13;5030279;28;20179;-57
2023/03/04 09:02:14;;;;;;;17.80;8.07;;;;;;;6.40;79.74;102499.19;5032563;28;20096;-57
2023/03/04 09:04:40;;;;;;;16.45;7.88;;;;;;;6.41;78.68;102506.19;5032654;28;20144;-57
2023/03/04 09:07:06;;;;;;;11.88;7.97;;;;;;;6.40;79.19;102504.47;5034142;28;20059;-57
2023/03/04 09:09:31;;;;;;;12.50;7.45;;;;;;;6.44;78.38;102500.00;5033460;28;20060;-57
2023/03/04 09:11:57;;;;;;;15.15;7.45;;;;;;;6.51;78.07;102501.63;5032698;28;20441;-56
2023/03/04 09:14:22;;;;;;;16.45;7.18;;;;;;;6.62;77.68;102507.59;5033946;28;20504;-56
2023/03/04 09:16:48;;;;;;;16.98;7.10;;;;;;;6.67;78.30;102503.06;5033547;28;20068;-57
2023/03/04 09:19:13;;;;;;;13.68;7.15;;;;;;;6.65;78.15;102496.94;5032597;28;20108;-57
2023/03/04 09:21:38;;;;;;;9.38;6.60;;;;;;;6.65;77.57;102496.06;5033292;28;20106;-57
2023/03/04 09:24:04;;;;;;;13.50;7.15;;;;;;;6.52;77.20;102482.22;5035879;28;20043;-57
2023/03/04 09:26:29;;;;;;;18.42;7.57;;;;;;;6.61;77.66;102489.97;5031254;28;20029;-57
2023/03/04 09:28:58;;;;;;;12.70;7.75;;;;;;;6.72;77.24;102489.75;5031592;28;20033;-57
2023/03/04 09:31:25;;;;;;;11.57;6.60;;;;;;;6.91;76.56;102491.13;5008518;28;20439;-57
2023/03/04 09:33:53;;;;;;;17.63;7.28;;;;;;;6.83;76.30;102493.06;5033172;28;20057;-57
2023/03/04 09:36:19;;;;;;;12.65;7.55;;;;;;;6.86;76.93;102486.84;5033262;28;20075;-57
2023/03/04 09:38:45;;;;;;;12.63;6.85;;;;;;;6.78;75.68;102482.56;5053461;28;20025;-56
2023/03/04 09:41:24;;;;;;;10.02;5.82;;;;;;;6.98;76.38;102486.56;5040947;28;20046;-57
2023/03/04 09:43:53;;;;;;;11.93;6.05;;;;;;;7.12;75.83;102488.88;5032406;28;20056;-57
2023/03/04 09:46:32;;;;;;;10.38;6.45;;;;;;;7.20;75.67;102474.59;5033310;28;20037;-57
2023/03/04 09:48:58;;;;;;;9.52;5.43;;;;;;;7.34;75.35;102482.22;5032467;28;20079;-56
2023/03/04 09:51:51;;;;;;;9.60;6.13;;;;;;;7.43;74.28;102483.78;5031695;28;20025;-57
2023/03/04 09:54:24;;;;;;;11.05;5.90;;;;;;;7.54;74.32;102483.53;5033309;28;20029;-57
2023/03/04 09:56:56;;;;;;;8.15;4.90;;;;;;;7.62;73.36;102484.22;5033163;28;20022;-57
2023/03/04 09:59:31;;;;;;;10.05;5.18;;;;;;;7.60;72.68;102491.31;5033066;28;20021;-57
2023/03/04 10:02:00;;;;;;;7.45;5.47;;;;;;;7.54;73.21;102487.03;5013732;28;20033;-57
2023/03/04 10:04:49;;;;;;;5.70;4.82;;;;;;;7.58;72.97;102487.84;5018451;28;20033;-57
2023/03/04 10:07:24;;;;;;;8.82;5.18;;;;;;;7.43;73.27;102491.72;5031236;28;20029;-57
2023/03/04 10:10:02;;;;;;;7.85;5.40;;;;;;;7.44;73.47;102483.75;5032359;28;20034;-57
2023/03/04 10:12:31;;;;;;;8.55;5.93;;;;;;;7.50;74.56;102480.09;5032630;28;20110;-57
2023/03/04 10:15:21;;;;;;;8.63;5.70;;;;;;;7.55;73.42;102485.25;5032390;28;20018;-56
2023/03/04 10:17:52;;;;;;;9.98;5.68;;;;;;;7.48;74.01;102484.53;5032529;28;20556;-57
2023/03/04 10:20:30;;;;;;;7.75;5.95;;;;;;;7.50;73.26;102488.03;5032685;28;20338;-57
2023/03/04 10:22:58;;;;;;;8.60;6.32;;;;;;;7.59;72.35;102484.28;5031271;28;20108;-57
2023/03/04 10:25:32;;;;;;;9.63;6.45;;;;;;;7.84;71.95;102479.25;5030813;28;20036;-57
2023/03/04 10:28:03;;;;;;;14.02;6.05;;;;;;;8.13;71.11;102479.38;5032514;28;20049;-57
2023/03/04 10:30:39;;;;;;;10.32;5.75;;;;;;;8.36;69.46;102469.94;5031856;28;20590;-57
2023/03/04 10:33:16;;;;;;;11.18;5.68;;;;;;;8.72;69.00;102472.47;5032372;28;20040;-57
2023/03/04 10:35:47;;;;;;;7.22;5.30;;;;;;;8.68;67.78;102461.09;5030974;28;20025;-57
2023/03/04 10:38:14;;;;;;;10.13;4.82;;;;;;;8.62;67.98;102467.44;5030873;28;20079;-57
2023/03/04 10:40:40;;;;;;;4.80;3.53;;;;;;;8.50;67.03;102461.59;5030581;28;20567;-56
2023/03/04 10:43:14;;;;;;;7.38;4.85;;;;;;;8.26;67.78;102458.69;5030925;28;20038;-57
2023/03/04 10:45:39;;;;;;;7.47;4.72;;;;;;;8.07;68.54;102465.41;5032422;28;20021;-57
2023/03/04 10:48:05;;;;;;;7.97;5.78;;;;;;;7.92;69.47;102464.03;5032105;28;20075;-56
2023/03/04 10:50:31;;;;;;;6.32;4.82;;;;;;;7.69;70.18;102467.25;5032305;28;20029;-57
2023/03/04 10:52:57;;;;;;;7.50;5.80;;;;;;;7.59;71.37;102463.09;5032598;28;20021;-57
2023/03/04 10:55:29;;;;;;;8.73;5.57;;;;;;;7.56;72.14;102463.16;5030544;28;20049;-57
2023/03/04 10:58:04;;;;;;;8.30;5.35;;;;;;;7.49;72.33;102460.66;5031751;28;20031;-57
2023/03/04 11:00:34;;;;;;;10.77;5.80;;;;;;;7.42;72.35;102464.38;5033641;28;20060;-56
2023/03/04 11:03:27;;;;;;;9.82;5.78;;;;;;;7.42;73.05;102459.09;5031223;28;20025;-56
2023/03/04 11:06:17;;;;;;;7.72;5.32;;;;;;;7.41;73.15;102460.00;5024250;28;20103;-57
2023/03/04 11:08:43;;;;;;;7.07;5.78;;;;;;;7.40;73.70;102455.59;5030484;28;20017;-57
2023/03/04 11:11:36;;;;;;;11.25;5.75;;;;;;;7.39;73.11;102455.66;5030214;28;20037;-57
2023/03/04 11:14:13;;;;;;;10.30;6.25;;;;;;;7.35;73.63;102452.19;5029964;28;20021;-57
2023/03/04 11:16:38;;;;;;;7.30;5.53;;;;;;;7.25;74.27;102445.38;5029029;28;20021;-56
2023/03/04 11:19:15;;;;;;;10.40;6.38;;;;;;;7.27;74.69;102447.09;5013215;28;20047;-57
2023/03/04 11:21:41;;;;;;;6.50;5.85;;;;;;;7.28;75.56;102440.88;5030951;28;20057;-57
2023/03/04 11:24:14;;;;;;;7.03;6.22;;;;;;;7.23;76.54;102445.41;5030090;28;20040;-57
2023/03/04 11:27:02;;;;;;;8.02;6.47;;;;;;;7.09;76.85;102443.97;5031020;28;20396;-57
2023/03/04 11:30:02;;;;;;;10.27;6.75;;;;;;;7.02;78.46;102443.25;5011988;28;20096;-57